CheckWX is a tool to help pilots better visualize weather data.  It is not intended as a substitute for an official pre-flight weather briefing.

02:30:32 UTC

UWKD TAF
Kazan International Airport
Kazan, Russian Federation
TAF UWKD 222300Z 2300/2324 31005MPS 9999 BKN020 TX12/2309Z TN04/2302Z TEMPO 2309/2315 33005G10MPS -SHRA BKN011 SCT030CB

Apr-23@
00:00 UTC

Apr-23 @ 00:00 UTC

Apr-24@
00:00 UTC

Apr-24 @ 00:00 UTC

TAF UWKD 222300Z 2300/2324 31005MPS 9999 BKN020 TX12/2309Z TN04/2302Z
Wind
  • 310° at 10 KTS
Cloud Levels
  • Broken at 2,000' AGL

Apr-23@
09:00 UTC

Apr-23 @ 09:00 UTC

Apr-23@
15:00 UTC

Apr-23 @ 15:00 UTC

TEMPO 2309/2315 33005G10MPS -SHRA BKN011 SCT030CB

Temporary

Temporary Changes expected for less than half the time period

Wind
  • 330° at 10 KTS
  • {Gusting to 19 KTS
Conditions
Light Rain
Cloud Levels
  • Broken at 1,100' AGL
  • Scattered at 3,000' AGL